Time;durP1;ratioP1;P1;durP2;ratioP2;P2;SDS_P1;SDS_P2;PMS_P1;PMS_P2;Temp;Humidity;BMP_temperature;BMP_pressure;BME280_temperature;BME280_humidity;BME280_pressure;Samples;Min_cycle;Max_cycle;Signal;HPM_P1;HPM_P2
2020/12/23 12:22:17;;;;;;;3.30;2.90;;;;;;;13.81;100.00;98576.84;5124637;27;20541;-84
2020/12/23 12:24:44;;;;;;;3.00;2.80;;;;;;;14.16;100.00;98570.47;5149023;22;38600;-84
2020/12/23 12:27:14;;;;;;;2.77;2.57;;;;;;;14.39;100.00;98556.09;5004515;28;43417;-85
2020/12/23 12:29:42;;;;;;;2.30;2.10;;;;;;;14.59;100.00;98557.13;4998092;28;43122;-85
2020/12/23 12:32:09;;;;;;;2.10;1.87;;;;;;;14.63;98.71;98535.44;5024046;28;42559;-86
2020/12/23 12:34:37;;;;;;;4.20;2.00;;;;;;;14.83;96.16;98548.91;5112957;22;40271;-78
2020/12/23 12:37:04;;;;;;;2.10;1.83;;;;;;;14.89;94.25;98546.56;5125982;22;42242;-79
2020/12/23 12:39:33;;;;;;;3.17;2.87;;;;;;;14.98;93.11;98544.94;5043416;28;42295;-79
2020/12/23 12:42:01;;;;;;;3.13;2.00;;;;;;;14.92;90.72;98542.81;5041965;28;42718;-77
2020/12/23 12:44:28;;;;;;;2.70;1.83;;;;;;;14.90;90.13;98526.09;5064312;28;39933;-78
2020/12/23 12:46:56;;;;;;;1.90;1.80;;;;;;;14.89;89.03;98532.38;5025394;28;42658;-80
2020/12/23 12:49:23;;;;;;;2.60;2.00;;;;;;;14.80;89.22;98518.03;5096256;22;43373;-79
2020/12/23 12:52:47;;;;;;;1.93;1.83;;;;;;;14.84;87.58;98515.94;4982838;28;43030;-77
2020/12/23 12:55:58;;;;;;;2.47;1.73;;;;;;;14.61;88.08;98492.06;5001335;28;40478;-75
2020/12/23 13:01:59;;;;;;;3.63;2.13;;;;;;;14.78;87.33;98519.13;5061403;28;20242;-81
2020/12/23 13:04:27;;;;;;;1.60;1.50;;;;;;;14.74;87.59;98498.06;5060964;28;40603;-83
2020/12/23 13:06:57;;;;;;;4.30;1.60;;;;;;;14.82;86.24;98509.91;5053206;28;40393;-81
2020/12/23 13:09:24;;;;;;;2.00;1.40;;;;;;;14.76;86.31;98494.41;5061066;28;42388;-80
2020/12/23 13:11:51;;;;;;;3.83;1.80;;;;;;;14.82;86.44;98499.25;5131744;22;43373;-83
2020/12/23 13:14:19;;;;;;;1.60;1.50;;;;;;;14.78;86.85;98493.31;5051505;28;41889;-82
2020/12/23 13:16:46;;;;;;;1.97;1.40;;;;;;;14.77;87.07;98496.97;5047056;28;39655;-81
2020/12/23 13:19:13;;;;;;;1.50;1.40;;;;;;;14.71;86.98;98492.97;5038191;28;42275;-81
2020/12/23 13:21:41;;;;;;;2.10;1.77;;;;;;;14.67;87.27;98483.56;5046186;28;43634;-81
2020/12/23 13:24:10;;;;;;;1.93;1.60;;;;;;;14.63;87.18;98484.81;5128254;22;41994;-82
2020/12/23 13:26:38;;;;;;;1.47;1.37;;;;;;;14.62;87.38;98477.78;5018441;28;40252;-81
2020/12/23 13:29:05;;;;;;;2.17;1.73;;;;;;;14.67;87.38;98480.91;5018115;28;43653;-82
2020/12/23 13:31:33;;;;;;;3.47;1.80;;;;;;;14.63;87.36;98471.47;5016556;28;45058;-82
2020/12/23 13:34:00;;;;;;;1.80;1.57;;;;;;;14.51;87.50;98448.53;4995994;28;43361;-82
2020/12/23 13:36:27;;;;;;;3.47;2.00;;;;;;;14.58;87.76;98471.03;5136660;22;39408;-82
2020/12/23 13:38:55;;;;;;;2.23;1.63;;;;;;;14.57;87.98;98474.69;5041311;28;41662;-80
2020/12/23 13:41:23;;;;;;;2.17;1.93;;;;;;;14.46;87.37;98450.78;5028129;28;44077;-82
2020/12/23 13:43:50;;;;;;;1.83;1.70;;;;;;;14.51;87.19;98469.84;5027177;28;43417;-84
2020/12/23 13:46:18;;;;;;;5.17;1.73;;;;;;;14.44;87.46;98458.03;5122103;22;40568;-82
2020/12/23 13:48:48;;;;;;;2.10;1.90;;;;;;;14.44;87.42;98463.38;5032909;28;39779;-82
2020/12/23 13:51:15;;;;;;;3.07;2.07;;;;;;;14.42;87.55;98459.13;5049283;28;42916;-82
2020/12/23 13:53:43;;;;;;;3.27;1.90;;;;;;;14.41;87.67;98457.44;5033679;28;42215;-81
2020/12/23 13:56:12;;;;;;;5.07;2.17;;;;;;;14.34;87.58;98457.91;5016203;28;41371;-82
2020/12/23 13:58:39;;;;;;;4.87;2.40;;;;;;;14.23;87.66;98433.16;5122419;22;42677;-82
2020/12/23 14:01:07;;;;;;;2.70;1.93;;;;;;;14.28;87.59;98458.44;5032691;28;44075;-82
2020/12/23 14:03:34;;;;;;;2.53;2.33;;;;;;;14.26;87.88;98454.22;5048486;28;42955;-82
2020/12/23 14:06:02;;;;;;;2.43;2.23;;;;;;;14.17;87.71;98447.00;5032846;28;41761;-81
2020/12/23 14:08:29;;;;;;;2.77;2.50;;;;;;;14.12;88.05;98434.06;5032959;28;43148;-82
2020/12/23 14:10:57;;;;;;;2.77;2.27;;;;;;;14.14;87.89;98444.59;5128822;22;44272;-81
2020/12/23 14:13:24;;;;;;;3.70;2.87;;;;;;;14.12;87.82;98433.22;5070028;28;41987;-81
2020/12/23 14:15:51;;;;;;;4.77;2.90;;;;;;;14.07;88.16;98438.94;5051523;28;40611;-81
2020/12/23 14:18:19;;;;;;;2.73;2.40;;;;;;;14.04;88.16;98428.53;5066935;28;41693;-82
2020/12/23 14:20:47;;;;;;;3.47;2.63;;;;;;;13.99;88.26;98426.25;5067924;28;42787;-82
2020/12/23 14:23:15;;;;;;;3.27;2.63;;;;;;;13.93;88.27;98421.44;5153654;22;42124;-81
2020/12/23 14:25:42;;;;;;;3.40;2.50;;;;;;;14.00;88.33;98427.09;5066532;28;39748;-82
2020/12/23 14:28:09;;;;;;;5.70;3.30;;;;;;;13.89;88.39;98406.69;5088665;28;42257;-81
2020/12/23 14:30:36;;;;;;;3.43;3.13;;;;;;;13.89;88.44;98408.50;5050543;28;43095;-81
2020/12/23 14:33:03;;;;;;;6.37;3.30;;;;;;;13.83;88.87;98393.91;5127147;22;42708;-81
2020/12/23 14:35:30;;;;;;;6.30;3.50;;;;;;;13.87;88.75;98403.31;5051531;28;40731;-80
2020/12/23 14:37:58;;;;;;;5.40;3.23;;;;;;;13.76;89.18;98392.72;5035504;28;42433;-82
2020/12/23 14:40:26;;;;;;;3.90;2.60;;;;;;;13.72;89.46;98395.78;5034317;28;43593;-83
2020/12/23 14:42:53;;;;;;;5.93;4.57;;;;;;;13.80;89.26;98404.81;5051070;28;42943;-82
2020/12/23 14:45:20;;;;;;;3.20;2.90;;;;;;;13.81;89.18;98398.50;5094333;22;41516;-80
2020/12/23 14:47:47;;;;;;;5.20;2.63;;;;;;;13.80;89.32;98393.31;4981098;28;43217;-81
2020/12/23 14:50:15;;;;;;;5.00;2.80;;;;;;;13.76;89.32;98392.72;4964870;28;44043;-83
2020/12/23 14:52:42;;;;;;;4.23;3.00;;;;;;;13.69;89.37;98377.41;4992453;28;43109;-83
2020/12/23 14:55:09;;;;;;;4.23;2.83;;;;;;;13.77;89.28;98386.44;5000387;28;39593;-82
2020/12/23 14:57:38;;;;;;;8.13;6.57;;;;;;;13.78;89.37;98380.13;5094204;22;42580;-82
2020/12/23 15:00:07;;;;;;;4.43;3.83;;;;;;;13.61;89.43;98356.72;5049360;28;43529;-82
2020/12/23 15:02:35;;;;;;;3.90;2.70;;;;;;;13.63;89.24;98363.63;5031430;28;42049;-81
2020/12/23 15:05:02;;;;;;;7.63;3.27;;;;;;;13.66;89.55;98370.50;5031326;28;39992;-81
2020/12/23 15:10:09;;;;;;;2.70;2.50;;;;;;;13.74;89.63;98375.19;5007529;28;42488;-82
2020/12/23 15:12:37;;;;;;;3.27;2.93;;;;;;;13.73;89.21;98374.34;5010235;28;42263;-82
2020/12/23 15:15:05;;;;;;;4.17;2.80;;;;;;;13.73;89.14;98370.81;5009038;28;39946;-82
2020/12/23 15:17:32;;;;;;;4.27;2.53;;;;;;;13.70;89.13;98371.94;4997397;28;41714;-81
2020/12/23 15:20:00;;;;;;;3.60;2.87;;;;;;;13.58;89.10;98346.34;5079228;23;44596;-81
